Time;durP1;ratioP1;P1;durP2;ratioP2;P2;SDS_P1;SDS_P2;PMS_P1;PMS_P2;Temp;Humidity;BMP_temperature;BMP_pressure;BME280_temperature;BME280_humidity;BME280_pressure;Samples;Min_cycle;Max_cycle;Signal;HPM_P1;HPM_P2
2023/04/04 12:06:19;;;;;;;12.63;5.88;;;128.80;2252.80;;;;;;2119280;23;20099;31
2023/04/04 12:08:45;;;;;;;8.20;4.75;;;128.90;2252.80;;;;;;4872412;29;20061;-77
2023/04/04 12:11:14;;;;;;;7.43;4.50;;;128.80;2252.80;;;;;;4914134;29;20037;-79
2023/04/04 12:13:43;;;;;;;8.20;4.70;;;128.80;2252.80;;;;;;4916765;29;20028;-78
2023/04/04 12:16:10;;;;;;;13.27;5.88;;;128.90;2252.80;;;;;;4911983;29;20024;-79
2023/04/04 12:18:36;;;;;;;8.82;5.28;;;153.60;2252.80;;;;;;4915218;29;20036;-82
2023/04/04 12:24:23;;;;;;;9.43;5.50;;;153.70;2252.80;;;;;;4916640;29;20065;-79
2023/04/04 12:26:52;;;;;;;10.43;5.78;;;153.60;2252.80;;;;;;4914856;29;20052;-79
2023/04/04 12:29:21;;;;;;;11.32;6.18;;;153.70;2252.80;;;;;;4911111;29;20052;-79
2023/04/04 12:31:48;;;;;;;11.23;5.95;;;153.70;2252.80;;;;;;4904700;29;20043;-79
2023/04/04 12:34:21;;;;;;;8.43;5.47;;;153.70;2252.80;;;;;;4911569;29;20044;-78
2023/04/04 12:40:43;;;;;;;11.60;6.57;;;153.80;2252.80;;;;;;4913810;29;20040;-79
2023/04/04 12:43:15;;;;;;;14.65;7.50;;;154.00;2252.80;;;;;;4913942;29;20073;-79
2023/04/04 12:45:42;;;;;;;11.23;6.95;;;154.10;2252.80;;;;;;4911273;29;20037;-79
2023/04/04 12:48:14;;;;;;;12.98;6.53;;;154.10;2252.80;;;;;;4896146;29;20045;-79
2023/04/04 12:50:50;;;;;;;11.45;6.22;;;154.10;2227.20;;;;;;4912812;29;20025;-79
2023/04/04 12:53:55;;;;;;;11.95;6.65;;;154.10;2227.20;;;;;;4916589;29;20040;-78
2023/04/04 12:56:26;;;;;;;9.90;6.15;;;154.30;2227.20;;;;;;4903812;29;20053;-79
2023/04/04 12:58:59;;;;;;;13.65;6.40;;;154.40;2227.20;;;;;;4919568;29;20056;-79
2023/04/04 13:01:25;;;;;;;16.30;7.15;;;154.40;2227.20;;;;;;4921056;29;20032;-79
2023/04/04 13:03:51;;;;;;;15.35;7.35;;;154.40;2252.80;;;;;;4909477;29;20033;-78
2023/04/04 13:10:21;;;;;;;15.48;7.00;;;154.40;2227.20;;;;;;4904068;29;20639;-80
2023/04/04 13:13:01;;;;;;;10.63;5.80;;;154.30;2227.20;;;;;;4925778;23;20056;-79
2023/04/04 13:15:48;;;;;;;12.80;5.68;;;154.30;2201.60;;;;;;5024935;23;20048;-80
2023/04/04 13:18:15;;;;;;;16.83;7.20;;;154.30;2201.60;;;;;;4916552;29;20036;-80
2023/04/04 13:20:40;;;;;;;17.23;8.43;;;154.30;2176.00;;;;;;4931799;29;20065;-79
2023/04/04 13:23:06;;;;;;;9.10;5.10;;;154.30;2176.00;;;;;;4926356;29;20024;-78
2023/04/04 13:25:33;;;;;;;14.50;6.18;;;154.40;2201.60;;;;;;4917993;29;20027;-83
2023/04/04 13:27:59;;;;;;;12.77;6.25;;;154.40;2176.00;;;;;;4918789;29;20048;-80
2023/04/04 13:30:25;;;;;;;16.67;6.32;;;154.40;2150.40;;;;;;4914588;29;20025;-78
2023/04/04 13:32:50;;;;;;;14.77;6.13;;;154.50;2150.40;;;;;;4899516;29;20041;-79
2023/04/04 13:35:16;;;;;;;12.43;6.22;;;154.50;2150.40;;;;;;4915605;29;20033;-78
2023/04/04 13:37:42;;;;;;;13.02;6.20;;;154.50;2150.40;;;;;;4908424;29;20490;-81
2023/04/04 13:40:08;;;;;;;17.42;7.85;;;179.20;2124.80;;;;;;4918645;29;20100;-81
2023/04/04 13:42:34;;;;;;;18.33;8.27;;;179.30;2150.40;;;;;;4916505;29;20084;-80
2023/04/04 13:45:00;;;;;;;17.85;7.35;;;179.40;2150.40;;;;;;4911893;29;20073;-79
2023/04/04 13:47:26;;;;;;;11.32;5.60;;;179.40;2124.80;;;;;;4901790;29;20072;-82
2023/04/04 13:49:53;;;;;;;8.50;4.80;;;179.50;2150.40;;;;;;4906135;29;20048;-81
2023/04/04 13:52:19;;;;;;;10.60;6.55;;;179.70;2124.80;;;;;;4920578;29;20041;-78
2023/04/04 13:54:45;;;;;;;8.90;5.32;;;179.50;2124.80;;;;;;4920591;29;20035;-81
2023/04/04 13:57:10;;;;;;;11.55;5.90;;;179.40;2124.80;;;;;;4904264;29;20032;-82
2023/04/04 13:59:36;;;;;;;11.55;6.40;;;179.30;2150.40;;;;;;4919410;29;20055;-81
2023/04/04 14:02:02;;;;;;;13.65;7.78;;;179.30;2150.40;;;;;;4914745;29;20446;-80
2023/04/04 14:04:28;;;;;;;15.77;7.22;;;179.30;2124.80;;;;;;4920763;29;20023;-81
2023/04/04 14:10:17;;;;;;;9.88;6.20;;;179.30;2150.40;;;;;;4916541;29;20056;-79
2023/04/04 14:12:42;;;;;;;15.38;7.60;;;179.30;2176.00;;;;;;4917661;29;20032;-80
2023/04/04 14:15:09;;;;;;;17.55;7.85;;;179.30;2176.00;;;;;;4919314;29;20048;-82
2023/04/04 14:17:35;;;;;;;9.95;6.25;;;179.50;2176.00;;;;;;4917298;29;20473;-77
2023/04/04 14:20:02;;;;;;;7.88;4.78;;;179.50;2150.40;;;;;;4906327;29;20036;-78
2023/04/04 14:22:28;;;;;;;13.02;6.30;;;179.50;2150.40;;;;;;4908076;29;20116;-77
2023/04/04 14:24:53;;;;;;;9.73;6.15;;;179.50;2176.00;;;;;;4908674;29;20051;-78
2023/04/04 14:27:19;;;;;;;14.32;6.47;;;179.50;2176.00;;;;;;4896562;29;20044;-78
2023/04/04 14:29:45;;;;;;;15.10;6.57;;;179.40;2150.40;;;;;;4912088;29;20035;-79
2023/04/04 14:32:11;;;;;;;13.45;7.30;;;179.30;2150.40;;;;;;4905574;29;20489;-77
2023/04/04 14:34:36;;;;;;;13.05;6.78;;;179.30;2150.40;;;;;;4912811;29;20032;-81
2023/04/04 14:37:03;;;;;;;11.48;6.95;;;179.30;2124.80;;;;;;4914202;29;20013;-79
2023/04/04 14:39:29;;;;;;;14.00;8.20;;;179.40;2124.80;;;;;;4911668;29;20080;-80
2023/04/04 14:41:55;;;;;;;19.05;10.15;;;179.40;2124.80;;;;;;4907002;29;20778;-80
2023/04/04 14:44:21;;;;;;;15.85;8.85;;;179.40;2124.80;;;;;;4905340;29;20127;-78
2023/04/04 14:46:48;;;;;;;22.23;10.82;;;179.40;2124.80;;;;;;4909658;29;20029;-80
2023/04/04 14:49:14;;;;;;;17.60;8.48;;;179.50;2124.80;;;;;;4914129;29;20056;-82
2023/04/04 14:51:40;;;;;;;15.30;8.32;;;179.60;2124.80;;;;;;4912379;29;20025;-79
2023/04/04 14:54:24;;;;;;;20.40;11.13;;;179.50;2099.20;;;;;;4907597;29;20037;-79
2023/04/04 14:56:50;;;;;;;9.18;5.50;;;179.60;2099.20;;;;;;4905848;29;20044;-79
2023/04/04 14:59:16;;;;;;;11.95;6.25;;;179.50;2099.20;;;;;;4895060;29;20024;-78
2023/04/04 15:01:42;;;;;;;18.10;9.27;;;179.50;2124.80;;;;;;4901646;29;20040;-78
2023/04/04 15:04:07;;;;;;;13.43;7.40;;;179.40;2124.80;;;;;;4888591;29;20432;-80
2023/04/04 15:06:36;;;;;;;14.27;7.53;;;179.30;2124.80;;;;;;4883997;29;20090;-79
2023/04/04 15:09:04;;;;;;;17.10;10.13;;;179.30;2150.40;;;;;;4888363;29;20045;-78
2023/04/04 15:11:30;;;;;;;29.50;13.35;;;179.30;2124.80;;;;;;4900555;29;20056;-80
2023/04/04 15:13:56;;;;;;;32.60;15.48;;;179.30;2124.80;;;;;;4918590;29;20041;-79
2023/04/04 15:16:23;;;;;;;38.42;18.38;;;179.30;2150.40;;;;;;4916865;29;20056;-80
2023/04/04 15:18:49;;;;;;;23.02;12.10;;;179.30;2124.80;;;;;;4916026;29;20045;-80
2023/04/04 15:21:15;;;;;;;11.98;6.30;;;179.20;2124.80;;;;;;4915448;29;20048;-81
2023/04/04 15:23:41;;;;;;;8.73;4.43;;;179.30;2150.40;;;;;;4912593;29;20037;-79
2023/04/04 15:26:06;;;;;;;9.10;4.57;;;179.20;2124.80;;;;;;4908443;29;20021;-80
2023/04/04 15:28:32;;;;;;;13.82;7.30;;;154.50;2124.80;;;;;;4898520;29;20048;-80
2023/04/04 15:31:01;;;;;;;9.50;5.30;;;154.50;2099.20;;;;;;4909801;29;20032;-78
2023/04/04 15:33:27;;;;;;;7.95;4.63;;;154.50;2099.20;;;;;;4906623;29;20025;-80
2023/04/04 15:35:53;;;;;;;11.18;5.03;;;154.50;2099.20;;;;;;4918989;29;20085;-80
2023/04/04 15:38:38;;;;;;;14.77;9.20;;;154.50;2124.80;;;;;;4913773;29;20482;-82
2023/04/04 15:41:06;;;;;;;12.50;6.05;;;154.40;2099.20;;;;;;4918090;29;20359;-78
2023/04/04 15:43:32;;;;;;;8.35;5.18;;;154.40;2073.60;;;;;;4914928;29;20028;-81
2023/04/04 15:45:58;;;;;;;7.85;5.03;;;154.40;2048.00;;;;;;4916632;29;20017;-80
2023/04/04 15:48:24;;;;;;;9.38;6.00;;;154.50;2048.00;;;;;;4913996;29;20040;-79
2023/04/04 15:50:50;;;;;;;10.48;5.60;;;154.50;2073.60;;;;;;4915436;29;20044;-81
2023/04/04 15:53:35;;;;;;;8.63;5.05;;;154.50;2073.60;;;;;;4909785;29;20161;-80
2023/04/04 15:56:01;;;;;;;8.35;4.53;;;154.50;2124.80;;;;;;4894595;29;20037;-78
2023/04/04 15:58:26;;;;;;;6.13;4.53;;;154.50;2176.00;;;;;;4910430;29;20027;-79
2023/04/04 16:00:52;;;;;;;11.07;5.47;;;154.50;2201.60;;;;;;4908581;29;20516;-78
2023/04/04 16:03:19;;;;;;;10.65;5.68;;;154.40;2176.00;;;;;;4892445;29;20018;-81
2023/04/04 16:05:45;;;;;;;12.45;7.82;;;154.40;2176.00;;;;;;4905994;29;20506;-80
2023/04/04 16:08:48;;;;;;;11.18;6.13;;;154.40;2150.40;;;;;;4903118;29;20043;-79
2023/04/04 16:11:14;;;;;;;9.52;5.55;;;154.40;2176.00;;;;;;4901755;29;20040;-78
2023/04/04 16:13:39;;;;;;;9.02;5.40;;;154.30;2201.60;;;;;;4901887;29;20029;-78
2023/04/04 16:16:05;;;;;;;10.93;5.70;;;154.20;2124.80;;;;;;4904915;29;20068;-80
2023/04/04 16:18:31;;;;;;;8.25;5.60;;;154.20;2124.80;;;;;;4904016;29;20080;-78
2023/04/04 16:20:57;;;;;;;7.93;4.70;;;154.10;2150.40;;;;;;4909456;29;20074;-79
2023/04/04 16:23:22;;;;;;;9.40;6.10;;;154.10;2099.20;;;;;;4903897;29;20021;-78
2023/04/04 16:25:48;;;;;;;17.55;9.18;;;154.10;2124.80;;;;;;4905004;29;20507;-77
2023/04/04 16:28:14;;;;;;;11.50;6.28;;;154.10;2150.40;;;;;;4909322;29;20040;-80
2023/04/04 16:30:40;;;;;;;13.57;6.80;;;154.10;2150.40;;;;;;4888874;29;20036;-78
2023/04/04 16:33:05;;;;;;;10.38;6.13;;;154.10;2150.40;;;;;;4888514;29;20037;-79
2023/04/04 16:35:31;;;;;;;11.27;6.32;;;154.10;2201.60;;;;;;4903849;29;20040;-78
2023/04/04 16:37:57;;;;;;;11.63;6.00;;;154.20;2201.60;;;;;;4904089;29;20439;-78
2023/04/04 16:40:22;;;;;;;10.60;6.00;;;154.10;2227.20;;;;;;4903681;29;20041;-78
2023/04/04 16:42:48;;;;;;;19.65;10.40;;;154.10;2227.20;;;;;;4900167;29;20021;-77
2023/04/04 16:45:14;;;;;;;24.45;13.60;;;154.00;2227.20;;;;;;4902743;29;20479;-77
2023/04/04 16:47:40;;;;;;;11.95;7.30;;;154.10;2252.80;;;;;;4905072;29;20060;-78
2023/04/04 16:50:06;;;;;;;15.82;8.57;;;154.00;2252.80;;;;;;4903864;29;20526;-80
2023/04/04 16:52:33;;;;;;;12.88;7.80;;;154.00;2252.80;;;;;;4905309;29;20526;-81
2023/04/04 16:54:59;;;;;;;10.88;6.50;;;153.90;2252.80;;;;;;4905491;29;20489;-79
2023/04/04 16:57:26;;;;;;;12.88;8.20;;;153.80;2252.80;;;;;;4904137;29;20045;-80
2023/04/04 16:59:55;;;;;;;13.27;7.60;;;153.80;2252.80;;;;;;4899638;29;20033;-80
2023/04/04 17:02:20;;;;;;;15.52;9.85;;;153.80;2252.80;;;;;;4902839;29;20131;-77
2023/04/04 17:04:46;;;;;;;17.38;9.30;;;153.80;2252.80;;;;;;4905245;29;20059;-81
2023/04/04 17:07:12;;;;;;;29.65;16.65;;;153.80;2252.80;;;;;;4903364;29;20447;-79
2023/04/04 17:09:38;;;;;;;28.13;15.60;;;153.80;2252.80;;;;;;4907566;29;20081;-80
2023/04/04 17:12:04;;;;;;;23.25;14.23;;;153.70;2252.80;;;;;;4907770;29;20132;-79
2023/04/04 17:14:30;;;;;;;35.30;16.15;;;153.70;2252.80;;;;;;4907921;29;20032;-78
2023/04/04 17:16:59;;;;;;;28.27;14.73;;;153.70;2252.80;;;;;;4909873;29;20054;-81
2023/04/04 17:19:28;;;;;;;31.88;18.52;;;153.70;2252.80;;;;;;4909655;29;20028;-80
2023/04/04 17:21:55;;;;;;;32.20;18.67;;;153.80;2252.80;;;;;;4893117;29;20056;-80
2023/04/04 17:24:58;;;;;;;34.55;19.42;;;153.80;2252.80;;;;;;4911485;29;20070;-79
2023/04/04 17:27:24;;;;;;;23.05;12.10;;;153.70;2252.80;;;;;;4908607;29;20061;-80
2023/04/04 17:29:49;;;;;;;21.40;10.60;;;153.70;2252.80;;;;;;4885799;29;20123;-80
2023/04/04 17:32:15;;;;;;;32.05;13.63;;;153.60;2252.80;;;;;;4903038;29;20041;-80
2023/04/04 17:34:41;;;;;;;38.75;16.60;;;153.60;2252.80;;;;;;4905621;29;20080;-80
2023/04/04 17:37:09;;;;;;;36.90;15.73;;;153.60;2252.80;;;;;;4900162;29;20553;-79
2023/04/04 17:39:37;;;;;;;30.35;11.50;;;128.90;2252.80;;;;;;4902768;29;20071;-80
2023/04/04 17:42:03;;;;;;;34.28;14.68;;;128.80;2252.80;;;;;;4907201;29;20040;-82
2023/04/04 17:44:28;;;;;;;37.67;15.70;;;128.80;2252.80;;;;;;4903861;29;20106;-79
2023/04/04 17:46:54;;;;;;;40.22;16.65;;;128.80;2252.80;;;;;;4904330;29;21593;-80
2023/04/04 17:49:20;;;;;;;32.20;14.05;;;128.80;2252.80;;;;;;4903725;29;20047;-79
2023/04/04 17:51:47;;;;;;;48.17;18.40;;;128.70;2252.80;;;;;;4898486;29;20088;-80
2023/04/04 17:54:13;;;;;;;19.65;9.30;;;128.70;2252.80;;;;;;4906554;29;20077;-79
2023/04/04 17:56:39;;;;;;;18.75;8.52;;;128.60;2252.80;;;;;;4901024;29;20096;-78
2023/04/04 17:59:05;;;;;;;16.33;6.95;;;128.50;2252.80;;;;;;4901308;29;20479;-78
2023/04/04 18:01:30;;;;;;;12.70;7.15;;;128.30;2252.80;;;;;;4897304;29;20044;-80
2023/04/04 18:03:56;;;;;;;9.40;5.22;;;128.30;2252.80;;;;;;4900875;29;20168;-78
2023/04/04 18:06:22;;;;;;;19.15;7.63;;;128.20;2252.80;;;;;;4902568;29;20064;-79
2023/04/04 18:08:49;;;;;;;9.15;5.10;;;128.20;2252.80;;;;;;4904090;29;20052;-78
2023/04/04 18:11:15;;;;;;;9.63;5.03;;;128.10;2252.80;;;;;;4905057;29;20129;-80
2023/04/04 18:13:40;;;;;;;9.88;5.53;;;128.00;2252.80;;;;;;4906721;29;20032;-81
2023/04/04 18:16:06;;;;;;;15.07;7.18;;;103.30;2227.20;;;;;;4906405;29;20152;-79
2023/04/04 18:18:32;;;;;;;14.10;7.20;;;128.00;2252.80;;;;;;4897067;29;20040;-81
2023/04/04 18:20:58;;;;;;;24.08;10.00;;;128.00;2252.80;;;;;;4903513;29;20538;-79
2023/04/04 18:23:42;;;;;;;10.20;5.03;;;103.30;2227.20;;;;;;4899878;29;20032;-80
2023/04/04 18:26:08;;;;;;;11.68;5.93;;;128.10;2252.80;;;;;;4899366;29;20067;-80
2023/04/04 18:28:34;;;;;;;12.45;5.90;;;128.10;2252.80;;;;;;4901117;29;20044;-80
2023/04/04 18:31:00;;;;;;;11.13;6.03;;;128.20;2252.80;;;;;;4904915;29;20032;-79
2023/04/04 18:33:26;;;;;;;13.52;5.20;;;128.20;2252.80;;;;;;4901613;29;20145;-80
2023/04/04 18:35:53;;;;;;;35.75;14.75;;;128.10;2252.80;;;;;;4902526;29;20087;-79
2023/04/04 18:38:19;;;;;;;14.75;6.43;;;128.30;2252.80;;;;;;4902379;29;20487;-78
2023/04/04 18:40:45;;;;;;;54.97;19.55;;;128.20;2252.80;;;;;;4900417;29;20032;-79
2023/04/04 18:43:11;;;;;;;22.02;8.40;;;128.30;2252.80;;;;;;4882419;29;20387;-79
2023/04/04 18:45:39;;;;;;;17.52;6.05;;;128.30;2252.80;;;;;;4898177;29;20041;-80
2023/04/04 18:48:05;;;;;;;9.50;4.88;;;128.20;2252.80;;;;;;4901637;29;20096;-80
2023/04/04 18:50:31;;;;;;;12.48;5.25;;;103.30;2227.20;;;;;;4901398;29;20038;-80
2023/04/04 18:53:47;;;;;;;12.82;6.28;;;103.30;2227.20;;;;;;4898517;29;20024;-80
2023/04/04 18:56:13;;;;;;;11.65;5.05;;;103.30;2227.20;;;;;;4901822;29;20052;-78
2023/04/04 18:58:40;;;;;;;10.13;4.70;;;103.30;2227.20;;;;;;4900196;29;20025;-79
2023/04/04 19:01:06;;;;;;;13.73;4.57;;;103.20;2227.20;;;;;;4901919;29;20036;-80
2023/04/04 19:03:41;;;;;;;10.18;4.85;;;103.20;2227.20;;;;;;4898899;29;20063;-80
2023/04/04 19:06:10;;;;;;;9.38;4.75;;;103.20;2227.20;;;;;;4899751;29;20095;-80
2023/04/04 19:08:40;;;;;;;19.42;7.32;;;103.20;2227.20;;;;;;4899140;29;20041;-79
2023/04/04 19:11:07;;;;;;;31.08;10.57;;;103.10;2227.20;;;;;;4900117;29;20032;-79
2023/04/04 19:13:33;;;;;;;27.23;9.05;;;103.10;2227.20;;;;;;4902832;29;20032;-80
2023/04/04 19:16:00;;;;;;;35.78;12.77;;;103.10;2227.20;;;;;;4902650;29;20039;-80
2023/04/04 19:18:26;;;;;;;26.38;10.90;;;103.00;2227.20;;;;;;4900787;29;20047;-80
2023/04/04 19:20:52;;;;;;;22.73;9.30;;;103.00;2227.20;;;;;;4900178;29;20033;-79
2023/04/04 19:23:19;;;;;;;24.63;10.05;;;103.10;2227.20;;;;;;4898701;29;20037;-78
2023/04/04 19:25:45;;;;;;;23.65;9.50;;;103.20;2227.20;;;;;;4899659;29;20057;-79
2023/04/04 19:28:11;;;;;;;24.63;10.30;;;103.10;2227.20;;;;;;4898458;29;20032;-80
2023/04/04 19:30:47;;;;;;;22.45;12.35;;;103.20;2227.20;;;;;;4900419;29;20033;-79
2023/04/04 19:33:16;;;;;;;21.42;11.05;;;103.20;2227.20;;;;;;4899273;29;20080;-79
2023/04/04 19:36:04;;;;;;;27.23;12.73;;;103.30;2227.20;;;;;;4886549;29;20044;-80
2023/04/04 19:38:34;;;;;;;37.92;17.02;;;103.20;2227.20;;;;;;4902688;29;20040;-80
2023/04/04 19:41:22;;;;;;;51.95;23.10;;;103.30;2227.20;;;;;;4901624;29;20035;-78
2023/04/04 19:43:49;;;;;;;54.38;23.52;;;103.30;2227.20;;;;;;4893689;29;20036;-80
2023/04/04 19:46:30;;;;;;;59.55;28.17;;;128.00;2252.80;;;;;;4899543;29;20124;-79
2023/04/04 19:49:16;;;;;;;42.30;18.75;;;128.00;2252.80;;;;;;4905021;29;20043;-80
2023/04/04 19:51:54;;;;;;;49.03;22.50;;;128.10;2252.80;;;;;;4906757;29;20036;-80
2023/04/04 19:54:33;;;;;;;50.90;24.67;;;128.10;2252.80;;;;;;4909760;29;20044;-79
2023/04/04 19:57:02;;;;;;;38.60;19.77;;;128.10;2252.80;;;;;;4916960;29;20030;-80
2023/04/04 19:59:58;;;;;;;35.47;18.05;;;128.10;2252.80;;;;;;4908322;29;20379;-80
2023/04/04 20:02:29;;;;;;;33.30;15.77;;;128.10;2252.80;;;;;;4910370;29;20115;-79
2023/04/04 20:04:55;;;;;;;20.50;12.70;;;128.10;2252.80;;;;;;4913539;29;20021;-80
2023/04/04 20:07:22;;;;;;;36.05;20.33;;;128.00;2252.80;;;;;;4918495;29;20091;-80
2023/04/04 20:09:50;;;;;;;42.42;23.92;;;103.30;2227.20;;;;;;4910378;29;20124;-81
2023/04/04 20:12:18;;;;;;;44.30;25.23;;;128.00;2252.80;;;;;;4906551;29;20032;-79
2023/04/04 20:14:44;;;;;;;46.20;26.60;;;103.30;2227.20;;;;;;4904869;29;20028;-79
2023/04/04 20:17:10;;;;;;;44.67;25.92;;;103.30;2227.20;;;;;;4900203;29;20099;-79
2023/04/04 20:19:36;;;;;;;43.13;24.02;;;103.30;2227.20;;;;;;4902328;29;20072;-79
2023/04/04 20:22:02;;;;;;;44.05;23.30;;;103.30;2227.20;;;;;;4907384;29;20033;-80
2023/04/04 20:24:29;;;;;;;44.75;23.73;;;103.30;2227.20;;;;;;4905183;29;20382;-80
2023/04/04 20:26:58;;;;;;;59.83;25.50;;;103.20;2227.20;;;;;;4901430;29;20044;-79
2023/04/04 20:29:28;;;;;;;67.50;30.52;;;103.10;2227.20;;;;;;4902393;29;20068;-79
2023/04/04 20:31:58;;;;;;;79.20;35.92;;;103.10;2227.20;;;;;;4900527;29;20040;-78
2023/04/04 20:34:40;;;;;;;92.68;38.83;;;102.90;2227.20;;;;;;4902463;29;20115;-80
2023/04/04 20:37:14;;;;;;;86.10;34.75;;;102.90;2227.20;;;;;;4903963;29;20039;-80
2023/04/04 20:39:57;;;;;;;60.90;29.02;;;102.80;2227.20;;;;;;4905205;29;20059;-78
2023/04/04 20:42:32;;;;;;;37.38;20.85;;;102.80;2227.20;;;;;;4909294;29;20064;-81
2023/04/04 20:45:26;;;;;;;35.90;18.85;;;102.80;2227.20;;;;;;4912984;29;20080;-79
2023/04/04 20:47:53;;;;;;;39.97;19.17;;;102.90;2227.20;;;;;;4903140;29;20049;-79
2023/04/04 20:50:40;;;;;;;50.33;22.75;;;103.10;2227.20;;;;;;4908739;29;20095;-79
2023/04/04 20:53:15;;;;;;;47.30;23.05;;;102.90;2227.20;;;;;;4898262;29;20036;-80
2023/04/04 20:55:42;;;;;;;54.58;23.55;;;103.00;2227.20;;;;;;4891352;29;20096;-79
2023/04/04 20:58:28;;;;;;;28.55;14.80;;;103.00;2227.20;;;;;;4902854;29;20032;-81
2023/04/04 21:00:58;;;;;;;30.80;15.57;;;103.00;2227.20;;;;;;4885135;29;20037;-80
2023/04/04 21:03:24;;;;;;;40.67;18.92;;;103.00;2227.20;;;;;;4899951;29;20036;-80
2023/04/04 21:05:50;;;;;;;41.58;19.90;;;103.00;2227.20;;;;;;4906290;29;20044;-80
2023/04/04 21:08:22;;;;;;;39.95;18.35;;;103.10;2227.20;;;;;;4899458;29;20044;-79
2023/04/04 21:10:53;;;;;;;37.38;19.05;;;103.10;2227.20;;;;;;4899163;29;20036;-80
2023/04/04 21:13:26;;;;;;;30.10;14.00;;;103.00;2227.20;;;;;;4900067;29;20104;-80
2023/04/04 21:15:57;;;;;;;33.35;14.98;;;103.00;2227.20;;;;;;4900329;29;20128;-81
2023/04/04 21:18:27;;;;;;;26.45;12.85;;;103.10;2227.20;;;;;;4902980;29;20092;-80
2023/04/04 21:21:05;;;;;;;15.93;8.45;;;103.10;2227.20;;;;;;4900804;29;20518;-81
2023/04/04 21:23:32;;;;;;;12.15;5.50;;;103.10;2227.20;;;;;;4911410;29;20037;-80
2023/04/04 21:25:59;;;;;;;14.25;6.32;;;103.10;2227.20;;;;;;4903177;29;20446;-78
2023/04/04 21:28:30;;;;;;;15.93;7.38;;;103.20;2227.20;;;;;;4895405;29;20132;-80
2023/04/04 21:30:56;;;;;;;13.18;6.82;;;103.20;2227.20;;;;;;4917982;29;20109;-79
2023/04/04 21:33:22;;;;;;;20.75;8.45;;;103.20;2227.20;;;;;;4902751;29;20032;-81
2023/04/04 21:35:50;;;;;;;40.45;12.77;;;103.20;2227.20;;;;;;4908905;29;20024;-79
2023/04/04 21:38:30;;;;;;;35.55;12.25;;;103.20;2227.20;;;;;;4905427;29;20032;-78
2023/04/04 21:41:11;;;;;;;28.77;11.27;;;103.20;2227.20;;;;;;4902595;29;20116;-79
2023/04/04 21:43:37;;;;;;;21.23;9.77;;;103.20;2227.20;;;;;;4907184;29;20035;-79
2023/04/04 21:46:03;;;;;;;18.05;7.95;;;103.20;2227.20;;;;;;4906202;29;20470;-79
2023/04/04 21:48:28;;;;;;;16.38;7.70;;;103.20;2227.20;;;;;;4901086;29;20482;-79
2023/04/04 21:50:54;;;;;;;16.77;7.65;;;103.20;2227.20;;;;;;4898023;29;20037;-78
2023/04/04 21:53:21;;;;;;;16.33;7.60;;;103.20;2227.20;;;;;;4899979;29;20096;-79
2023/04/04 21:55:47;;;;;;;21.15;8.82;;;103.20;2227.20;;;;;;4900516;29;20103;-80
2023/04/04 21:58:13;;;;;;;22.55;8.43;;;103.20;2227.20;;;;;;4899405;29;20052;-78
2023/04/04 22:00:39;;;;;;;21.35;7.90;;;103.20;2227.20;;;;;;4898831;29;20028;-78
2023/04/04 22:03:05;;;;;;;20.15;8.38;;;103.10;2227.20;;;;;;4899782;29;20029;-81
2023/04/04 22:05:30;;;;;;;16.73;7.10;;;103.10;2227.20;;;;;;4900986;29;20409;-79
2023/04/04 22:07:56;;;;;;;11.65;5.43;;;103.10;2227.20;;;;;;4900611;29;20043;-79
2023/04/04 22:10:25;;;;;;;10.88;5.47;;;103.00;2227.20;;;;;;4899704;29;20032;-79
2023/04/04 22:12:58;;;;;;;9.65;5.25;;;103.00;2227.20;;;;;;4901488;29;20063;-79
2023/04/04 22:15:28;;;;;;;10.20;5.03;;;103.00;2227.20;;;;;;4899821;29;20088;-79
2023/04/04 22:18:02;;;;;;;10.20;5.35;;;103.00;2227.20;;;;;;4882569;29;20040;-80
2023/04/04 22:20:31;;;;;;;25.88;9.82;;;102.90;2227.20;;;;;;4899628;29;20032;-78
2023/04/04 22:22:58;;;;;;;29.25;9.30;;;102.90;2227.20;;;;;;4896998;29;20475;-79
2023/04/04 22:25:25;;;;;;;22.35;8.27;;;102.50;2227.20;;;;;;4898945;29;20040;-79
2023/04/04 22:27:51;;;;;;;14.60;6.60;;;102.80;2227.20;;;;;;4899741;29;20036;-79
2023/04/04 22:30:17;;;;;;;13.25;4.95;;;102.80;2227.20;;;;;;4899917;29;20466;-80
2023/04/04 22:32:43;;;;;;;11.32;5.35;;;102.80;2227.20;;;;;;4899924;29;20025;-81
2023/04/04 22:35:11;;;;;;;14.27;5.63;;;102.80;2227.20;;;;;;4899556;29;20169;-78
2023/04/04 22:37:37;;;;;;;12.23;5.57;;;102.80;2227.20;;;;;;4898908;29;20032;-79
2023/04/04 22:40:10;;;;;;;10.77;5.38;;;102.70;2227.20;;;;;;4882392;29;20088;-79
2023/04/04 22:42:36;;;;;;;15.02;6.80;;;102.70;2227.20;;;;;;4897877;29;20052;-79
2023/04/04 22:45:03;;;;;;;14.90;6.97;;;102.70;2227.20;;;;;;4900118;29;20120;-79
2023/04/04 22:47:28;;;;;;;15.10;6.63;;;103.00;2227.20;;;;;;4898582;29;20044;-80
2023/04/04 22:49:55;;;;;;;11.50;5.40;;;102.90;2227.20;;;;;;4898437;29;20100;-80
2023/04/04 22:52:25;;;;;;;17.83;6.47;;;102.70;2227.20;;;;;;4900832;29;20047;-78
2023/04/04 22:54:51;;;;;;;33.28;8.38;;;102.60;2227.20;;;;;;4899168;29;20029;-79
2023/04/04 22:57:17;;;;;;;42.30;10.00;;;102.60;2227.20;;;;;;4900159;29;20043;-79
2023/04/04 22:59:43;;;;;;;17.42;5.75;;;102.50;2227.20;;;;;;4900898;29;20048;-81
2023/04/04 23:02:09;;;;;;;11.20;5.75;;;102.50;2227.20;;;;;;4884175;29;20033;-80
2023/04/04 23:04:35;;;;;;;11.43;5.20;;;102.40;2227.20;;;;;;4900858;29;20055;-81
2023/04/04 23:07:01;;;;;;;10.07;4.47;;;102.40;2227.20;;;;;;4901338;29;20382;-79
2023/04/04 23:09:27;;;;;;;9.90;4.35;;;77.70;2227.20;;;;;;4900707;29;20047;-80
2023/04/04 23:11:52;;;;;;;9.68;4.60;;;77.70;2227.20;;;;;;4899575;29;20029;-79
2023/04/04 23:14:18;;;;;;;12.35;5.15;;;77.70;2227.20;;;;;;4900455;29;20040;-79
2023/04/04 23:16:45;;;;;;;9.35;4.32;;;77.60;2227.20;;;;;;4903715;29;20048;-79
2023/04/04 23:19:11;;;;;;;9.38;4.13;;;77.60;2227.20;;;;;;4901704;29;20072;-79
2023/04/04 23:21:37;;;;;;;9.85;4.30;;;77.60;2227.20;;;;;;4903716;29;20024;-82
2023/04/04 23:24:04;;;;;;;8.48;4.10;;;77.70;2227.20;;;;;;4903360;29;20033;-79
2023/04/04 23:26:32;;;;;;;9.18;4.13;;;102.40;2227.20;;;;;;4904041;29;20084;-80
2023/04/04 23:29:00;;;;;;;9.05;4.32;;;77.60;2227.20;;;;;;4929421;29;20370;-83
2023/04/04 23:31:26;;;;;;;9.32;4.15;;;77.60;2227.20;;;;;;4933657;29;20028;-81
2023/04/04 23:33:52;;;;;;;8.52;3.78;;;;;;;;;;4937203;29;20008;-82
2023/04/04 23:36:19;;;;;;;8.65;3.95;;;;;;;;;;4937516;29;20024;-83
2023/04/04 23:38:45;;;;;;;10.32;4.32;;;;;;;;;;4935038;29;20036;-81
2023/04/04 23:48:19;;;;;;;9.65;4.65;;;;;;;;;;4896735;29;20060;-81
2023/04/04 23:50:45;;;;;;;12.02;5.60;;;;;;;;;;4899324;29;20032;-82
2023/04/04 23:53:11;;;;;;;10.13;4.75;;;;;;;;;;4898474;29;20065;-83
2023/04/04 23:55:53;;;;;;;12.40;5.35;;;;;;;;;;4898007;29;20021;-82
2023/04/04 23:58:19;;;;;;;17.52;4.93;;;;;;;;;;4897576;29;20016;-82
